Time;durP1;ratioP1;P1;durP2;ratioP2;P2;SDS_P1;SDS_P2;PMS_P1;PMS_P2;Temp;Humidity;BMP_temperature;BMP_pressure;BME280_temperature;BME280_humidity;BME280_pressure;Samples;Min_cycle;Max_cycle;Signal;HPM_P1;HPM_P2
2021/01/05 00:00:22;;;;;;;66.30;27.40;;;1.90;99.90;;;-143.91;100.00;62816.50;4946353;28;100470;-68
2021/01/05 00:02:50;;;;;;;60.17;27.97;;;1.90;99.90;;;-143.91;100.00;62816.50;4946630;28;101144;-69
2021/01/05 00:05:18;;;;;;;73.33;29.93;;;1.80;99.90;;;-143.91;100.00;62816.50;4946610;28;100167;-67
2021/01/05 00:07:45;;;;;;;68.33;27.70;;;2.30;99.90;;;-143.91;100.00;62816.50;4946404;28;100095;-69
2021/01/05 00:10:13;;;;;;;76.17;29.00;;;2.80;99.90;;;-143.91;100.00;62816.50;4947809;28;100096;-69
2021/01/05 00:12:40;;;;;;;69.23;29.77;;;1.70;99.90;;;-143.91;100.00;62816.50;4945671;28;100823;-68
2021/01/05 00:15:09;;;;;;;71.27;29.60;;;2.80;99.90;;;-143.91;100.00;62816.50;4946023;28;101697;-68
2021/01/05 00:17:36;;;;;;;70.50;27.47;;;1.90;99.90;;;-143.91;100.00;62816.50;4945661;28;100435;-68
2021/01/05 00:20:10;;;;;;;63.00;28.33;;;2.70;99.90;;;-143.91;100.00;62816.50;4946146;28;100323;-68
2021/01/05 00:22:37;;;;;;;70.23;30.07;;;1.90;99.90;;;-143.91;100.00;62816.50;4946234;28;100068;-68
2021/01/05 00:25:08;;;;;;;64.80;27.23;;;2.00;99.90;;;-143.91;100.00;62816.50;4945330;28;100487;-68
2021/01/05 00:27:35;;;;;;;68.87;27.57;;;2.60;99.90;;;-143.91;100.00;62816.50;4945844;28;100015;-68
2021/01/05 00:30:08;;;;;;;77.03;29.93;;;1.70;99.90;;;-143.91;100.00;62816.50;4945806;28;100872;-70
2021/01/05 00:32:34;;;;;;;61.43;27.70;;;1.80;99.90;;;-143.91;100.00;62816.50;4945988;28;100045;-68
2021/01/05 00:35:01;;;;;;;69.93;27.97;;;1.90;99.90;;;-143.91;100.00;62816.50;4945774;28;100268;-68
2021/01/05 00:37:28;;;;;;;72.27;28.17;;;1.90;99.90;;;-143.91;100.00;62816.50;4946079;28;100350;-70
2021/01/05 00:39:55;;;;;;;70.80;30.17;;;1.70;99.90;;;-143.91;100.00;62816.50;4945288;28;100243;-69
2021/01/05 00:42:22;;;;;;;66.40;28.33;;;2.00;99.90;;;-143.91;100.00;62816.50;4945518;28;101768;-69
2021/01/05 00:44:49;;;;;;;64.77;29.97;;;1.90;99.90;;;-143.91;100.00;62816.50;4946293;28;100885;-69
2021/01/05 00:47:15;;;;;;;62.83;28.97;;;2.00;99.90;;;-143.91;100.00;62816.50;4945706;28;100183;-69
2021/01/05 00:49:42;;;;;;;80.73;30.80;;;1.80;99.90;;;-143.91;100.00;62816.50;4946282;28;100283;-68
2021/01/05 00:52:09;;;;;;;63.40;29.27;;;1.90;99.90;;;-143.91;100.00;62816.50;4927137;28;102847;-69
2021/01/05 00:54:36;;;;;;;61.43;29.20;;;1.90;99.90;;;-143.91;100.00;62816.50;4945008;28;101573;-69
2021/01/05 00:57:09;;;;;;;61.03;29.23;;;1.80;99.90;;;-143.91;100.00;62816.50;4943864;28;100294;-69
2021/01/05 00:59:41;;;;;;;72.83;27.63;;;2.00;99.90;;;-143.91;100.00;62816.50;4943737;28;100332;-69
2021/01/05 01:02:09;;;;;;;74.53;28.47;;;1.90;99.90;;;-143.91;100.00;62816.50;4926920;28;103510;-68
2021/01/05 01:04:36;;;;;;;68.90;30.70;;;2.00;99.90;;;-143.91;100.00;62816.50;4926606;28;102784;-68
2021/01/05 01:07:05;;;;;;;66.63;30.23;;;1.90;99.90;;;-143.91;100.00;62816.50;4943512;28;100113;-68
2021/01/05 01:09:33;;;;;;;67.93;29.87;;;2.00;99.90;;;-143.91;100.00;62816.50;4945821;28;100460;-69
2021/01/05 01:12:13;;;;;;;60.47;28.60;;;1.70;99.90;;;-143.91;100.00;62816.50;4944762;28;100591;-69
2021/01/05 01:14:44;;;;;;;64.77;27.93;;;1.80;99.90;;;-143.91;100.00;62816.50;4943582;28;102468;-69
2021/01/05 01:17:11;;;;;;;72.87;30.33;;;1.90;99.90;;;-143.91;100.00;62816.50;4943008;28;100398;-68
2021/01/05 01:19:38;;;;;;;70.17;32.23;;;1.90;99.90;;;-143.91;100.00;62816.50;4927432;28;100608;-68
2021/01/05 01:22:07;;;;;;;62.93;27.97;;;1.90;99.90;;;-143.91;100.00;62816.50;4939700;28;103476;-68
2021/01/05 01:24:35;;;;;;;63.20;30.50;;;1.30;99.90;;;-143.91;100.00;62816.50;4914699;28;102521;-69
2021/01/05 01:27:02;;;;;;;70.93;31.03;;;2.10;99.90;;;-143.91;100.00;62816.50;4943003;28;100483;-67
2021/01/05 01:29:30;;;;;;;79.00;32.13;;;1.80;99.90;;;-143.91;100.00;62816.50;4927676;28;100250;-68
2021/01/05 01:31:58;;;;;;;69.03;29.67;;;1.90;99.90;;;-143.91;100.00;62816.50;4939162;28;102954;-69
2021/01/05 01:34:27;;;;;;;70.77;30.63;;;2.00;99.90;;;-143.91;100.00;62816.50;4906654;28;102274;-70
2021/01/05 01:36:58;;;;;;;68.20;30.00;;;3.20;99.90;;;-143.91;100.00;62816.50;4907111;28;100219;-68
2021/01/05 01:39:27;;;;;;;72.37;31.13;;;2.00;99.90;;;-143.91;100.00;62816.50;4907557;28;100452;-69
2021/01/05 01:41:54;;;;;;;72.80;30.57;;;1.80;99.90;;;-143.91;100.00;62816.50;4922908;28;103466;-68
2021/01/05 01:44:26;;;;;;;70.37;29.27;;;2.00;99.90;;;-143.91;100.00;62816.50;4907046;28;102684;-69
2021/01/05 01:47:01;;;;;;;71.70;30.50;;;1.90;99.90;;;-143.91;100.00;62816.50;4923249;28;100409;-68
2021/01/05 01:49:28;;;;;;;67.97;29.70;;;1.80;99.90;;;-143.91;100.00;62816.50;4929604;28;100526;-68
2021/01/05 01:51:56;;;;;;;73.13;30.67;;;2.10;99.90;;;-143.91;100.00;62816.50;4925714;28;102549;-68
2021/01/05 01:55:23;;;;;;;79.73;31.43;;;1.90;99.90;;;-143.91;100.00;62816.50;4926412;28;102359;-69
2021/01/05 01:58:28;;;;;;;84.63;29.60;;;2.00;99.90;;;-143.91;100.00;62816.50;4941586;28;100180;-69
2021/01/05 02:01:15;;;;;;;81.53;30.37;;;1.90;99.90;;;-143.91;100.00;62816.50;4942063;28;100233;-68
2021/01/05 02:04:13;;;;;;;75.03;30.80;;;1.90;99.90;;;-143.91;100.00;62816.50;4925909;28;103017;-68
2021/01/05 02:07:08;;;;;;;81.00;30.17;;;1.90;99.90;;;-143.91;100.00;62816.50;4944744;28;100490;-69
2021/01/05 02:10:03;;;;;;;90.93;31.97;;;1.90;99.90;;;-143.91;100.00;62816.50;4945014;28;100113;-68
2021/01/05 02:12:35;;;;;;;73.23;29.33;;;1.80;99.90;;;-143.91;100.00;62816.50;4943065;28;100436;-69
2021/01/05 02:15:15;;;;;;;80.63;30.93;;;2.10;99.90;;;-143.91;100.00;62816.50;4925584;28;102305;-69
2021/01/05 02:18:13;;;;;;;80.57;32.57;;;1.90;99.90;;;-143.91;100.00;62816.50;4926177;28;101569;-68
2021/01/05 02:20:46;;;;;;;72.20;29.93;;;2.00;99.90;;;-143.91;100.00;62816.50;4942514;28;100282;-70
2021/01/05 02:23:32;;;;;;;65.33;29.97;;;2.00;99.90;;;-143.91;100.00;62816.50;4926161;28;100335;-68
2021/01/05 02:26:14;;;;;;;73.07;30.23;;;1.90;99.90;;;-143.91;100.00;62816.50;4925113;28;103114;-69
2021/01/05 02:28:55;;;;;;;75.67;29.50;;;2.00;99.90;;;-143.91;100.00;62816.50;4926212;28;102336;-69
2021/01/05 02:31:36;;;;;;;68.20;29.73;;;2.00;99.90;;;-143.91;100.00;62816.50;4944261;28;100338;-69
2021/01/05 02:34:08;;;;;;;65.27;30.20;;;1.90;99.90;;;-143.91;100.00;62816.50;4929902;28;99898;-69
2021/01/05 02:37:32;;;;;;;67.47;29.97;;;1.90;99.90;;;-143.91;100.00;62816.50;4928737;28;100547;-69
2021/01/05 02:40:51;;;;;;;67.97;29.83;;;1.90;99.90;;;-143.91;100.00;62816.50;4945671;28;100110;-69
2021/01/05 02:44:19;;;;;;;74.73;33.00;;;2.00;99.90;;;-143.91;100.00;62816.50;4875127;28;100302;-68
2021/01/05 02:47:36;;;;;;;68.33;30.43;;;1.40;99.90;;;-143.91;100.00;62816.50;4925555;28;100223;-68
2021/01/05 02:50:56;;;;;;;66.70;28.13;;;2.00;99.90;;;-143.91;100.00;62816.50;4938256;28;100422;-68
2021/01/05 02:54:36;;;;;;;77.43;32.37;;;1.90;99.90;;;-143.91;100.00;62816.50;4945034;28;100415;-70
2021/01/05 02:57:47;;;;;;;76.93;30.83;;;1.80;99.90;;;-143.91;100.00;62816.50;4944419;28;100454;-69
2021/01/05 03:01:30;;;;;;;83.93;30.37;;;2.00;99.90;;;-143.91;100.00;62816.50;4945780;28;100114;-68
2021/01/05 03:04:23;;;;;;;83.30;30.57;;;1.90;99.90;;;-143.91;100.00;62816.50;4918734;28;100279;-69
2021/01/05 03:07:14;;;;;;;86.83;32.97;;;1.90;99.90;;;-143.91;100.00;62816.50;4944908;28;100537;-68
2021/01/05 03:10:17;;;;;;;87.67;32.63;;;1.80;99.90;;;-143.91;100.00;62816.50;4944287;28;100242;-69
2021/01/05 03:13:43;;;;;;;73.80;29.27;;;1.80;99.90;;;-143.91;100.00;62816.50;4944296;28;100007;-68
2021/01/05 03:16:57;;;;;;;82.83;32.33;;;1.90;99.90;;;-143.91;100.00;62816.50;4904310;28;100480;-68
2021/01/05 03:20:21;;;;;;;92.53;30.60;;;1.90;99.90;;;-143.91;100.00;62816.50;4846651;28;100892;-69
2021/01/05 03:23:12;;;;;;;79.87;28.37;;;1.80;99.90;;;-143.91;100.00;62816.50;4856575;28;100387;-68
2021/01/05 03:26:01;;;;;;;106.17;33.83;;;1.80;99.90;;;-143.91;100.00;62816.50;4941749;28;100151;-69
2021/01/05 03:28:56;;;;;;;86.10;32.07;;;1.70;99.90;;;-143.91;100.00;62816.50;4896832;28;100655;-68
2021/01/05 03:31:50;;;;;;;69.30;26.70;;;1.70;99.90;;;-143.91;100.00;62816.50;4946924;28;100281;-68
2021/01/05 03:34:35;;;;;;;77.90;27.57;;;1.90;99.90;;;-143.91;100.00;62816.50;4944808;28;100181;-68
2021/01/05 03:37:21;;;;;;;90.20;30.80;;;1.80;99.90;;;-143.91;100.00;62816.50;4943702;28;100225;-70
2021/01/05 03:40:20;;;;;;;85.70;29.90;;;1.10;99.90;;;-143.91;100.00;62816.50;4911527;28;100691;-68
2021/01/05 03:43:05;;;;;;;95.47;30.47;;;1.80;99.90;;;-143.91;100.00;62816.50;4924315;28;100140;-68
2021/01/05 03:45:51;;;;;;;75.60;30.13;;;0.80;99.90;;;-143.91;100.00;62816.50;4928006;28;100110;-69
2021/01/05 03:48:37;;;;;;;92.57;30.57;;;1.70;99.90;;;-143.91;100.00;62816.50;4926050;28;100305;-68
2021/01/05 03:51:22;;;;;;;97.43;30.60;;;1.70;99.90;;;-143.91;100.00;62816.50;4925694;28;101243;-68
2021/01/05 03:54:08;;;;;;;83.90;28.17;;;1.70;99.90;;;-143.91;100.00;62816.50;4924232;28;100179;-68
2021/01/05 03:56:53;;;;;;;84.97;29.67;;;1.70;99.90;;;-143.91;100.00;62816.50;4946451;28;100299;-68
2021/01/05 03:59:41;;;;;;;74.63;28.60;;;0.60;99.90;;;-143.91;100.00;62816.50;4943174;28;100204;-68
2021/01/05 04:02:26;;;;;;;117.70;29.90;;;1.70;99.90;;;-143.91;100.00;62816.50;4943454;28;100375;-68
2021/01/05 04:04:54;;;;;;;88.87;31.37;;;1.80;99.90;;;-143.91;100.00;62816.50;4946343;28;100752;-69
2021/01/05 04:07:20;;;;;;;79.53;29.80;;;1.80;99.90;;;-143.91;100.00;62816.50;4946752;28;100288;-68
2021/01/05 04:09:47;;;;;;;97.80;31.37;;;1.90;99.90;;;-143.91;100.00;62816.50;4945976;28;100331;-69
2021/01/05 04:12:14;;;;;;;97.23;29.30;;;1.70;99.90;;;-143.91;100.00;62816.50;4946329;28;100783;-69
2021/01/05 04:14:40;;;;;;;73.03;29.60;;;1.90;99.90;;;-143.91;100.00;62816.50;4946684;28;100530;-70
2021/01/05 04:17:07;;;;;;;81.47;28.57;;;1.70;99.90;;;-143.91;100.00;62816.50;4946996;28;100082;-69
2021/01/05 04:19:34;;;;;;;92.00;28.33;;;1.80;99.90;;;-143.91;100.00;62816.50;4946689;28;100703;-69
2021/01/05 04:22:01;;;;;;;80.60;29.23;;;1.80;99.90;;;-143.91;100.00;62816.50;4945449;28;101477;-70
2021/01/05 04:24:28;;;;;;;100.63;28.67;;;3.00;99.90;;;-143.91;100.00;62816.50;4945890;28;100580;-69
2021/01/05 04:26:54;;;;;;;96.00;28.93;;;2.40;99.90;;;-143.91;100.00;62816.50;4945842;28;100390;-70
2021/01/05 04:29:21;;;;;;;90.53;27.87;;;1.80;99.90;;;-143.91;100.00;62816.50;4946701;28;100308;-68
2021/01/05 04:31:48;;;;;;;79.03;28.13;;;1.90;99.90;;;-143.91;100.00;62816.50;4945549;28;101161;-70
2021/01/05 04:34:16;;;;;;;78.87;26.70;;;1.80;99.90;;;-143.91;100.00;62816.50;4945769;28;100064;-68
2021/01/05 04:36:43;;;;;;;69.23;26.50;;;1.90;99.90;;;-143.91;100.00;62816.50;4946055;28;100115;-69
2021/01/05 04:39:11;;;;;;;76.53;26.53;;;1.70;99.90;;;-143.91;100.00;62816.50;4946824;28;100116;-68
2021/01/05 04:41:46;;;;;;;83.30;27.80;;;1.90;99.90;;;-143.91;100.00;62816.50;4945726;28;100807;-68
2021/01/05 04:44:16;;;;;;;70.70;25.43;;;1.70;99.90;;;-143.91;100.00;62816.50;4946025;28;100594;-68
2021/01/05 04:47:01;;;;;;;69.97;26.87;;;1.80;99.90;;;-143.91;100.00;62816.50;4927062;28;100283;-70
2021/01/05 04:50:04;;;;;;;85.60;26.27;;;1.80;99.90;;;-143.91;100.00;62816.50;4945659;28;100262;-69
2021/01/05 04:52:38;;;;;;;71.67;24.80;;;1.70;99.90;;;-143.91;100.00;62816.50;4944198;28;100324;-68
2021/01/05 04:55:38;;;;;;;85.03;29.20;;;1.80;99.90;;;-143.91;100.00;62816.50;4945703;28;100649;-68
2021/01/05 04:58:25;;;;;;;93.93;28.57;;;1.70;99.90;;;-143.91;100.00;62816.50;4945742;28;100157;-69
2021/01/05 05:00:53;;;;;;;88.33;33.07;;;1.80;99.90;;;-143.91;100.00;62816.50;4945497;28;100464;-69
2021/01/05 05:03:54;;;;;;;72.90;27.83;;;1.70;99.90;;;-143.91;100.00;62816.50;4945088;28;101388;-69
2021/01/05 05:06:37;;;;;;;59.67;25.30;;;1.80;99.90;;;-143.91;100.00;62816.50;4945514;28;101616;-69
2021/01/05 05:09:38;;;;;;;83.97;25.13;;;1.90;99.90;;;-143.91;100.00;62816.50;4945328;28;100060;-69
2021/01/05 05:12:25;;;;;;;71.67;27.00;;;1.80;99.90;;;-143.91;100.00;62816.50;4936878;28;100813;-68
2021/01/05 05:15:11;;;;;;;65.60;28.07;;;1.80;99.90;;;-143.91;100.00;62816.50;4945332;28;100774;-70
2021/01/05 05:18:03;;;;;;;77.70;28.60;;;1.30;99.90;;;-143.91;100.00;62816.50;4946092;28;100558;-69
2021/01/05 05:21:06;;;;;;;89.27;27.10;;;1.70;99.90;;;-143.91;100.00;62816.50;4945542;28;100226;-69
2021/01/05 05:23:53;;;;;;;66.87;26.80;;;1.70;99.90;;;-143.91;100.00;62816.50;4945218;28;100194;-69
2021/01/05 05:26:26;;;;;;;72.50;26.17;;;2.90;99.90;;;-143.91;100.00;62816.50;4945069;28;101194;-69
2021/01/05 05:29:00;;;;;;;71.23;26.97;;;1.70;99.90;;;-143.91;100.00;62816.50;4944845;28;101302;-69
2021/01/05 05:31:32;;;;;;;67.20;25.50;;;3.00;99.90;;;-143.91;100.00;62816.50;4945104;28;100469;-70
2021/01/05 05:34:02;;;;;;;76.53;25.53;;;1.80;99.90;;;-143.91;100.00;62816.50;4945796;28;100130;-70
2021/01/05 05:36:57;;;;;;;78.30;25.90;;;1.80;99.90;;;-143.91;100.00;62816.50;4944850;28;101024;-69
2021/01/05 05:39:45;;;;;;;67.73;26.23;;;1.80;99.90;;;-143.91;100.00;62816.50;4944357;28;101098;-69
2021/01/05 05:42:36;;;;;;;75.90;25.10;;;1.80;99.90;;;-143.91;100.00;62816.50;4944156;28;100412;-69
2021/01/05 05:45:09;;;;;;;71.23;25.73;;;1.70;99.90;;;-143.91;100.00;62816.50;4944708;28;99880;-69
2021/01/05 05:47:41;;;;;;;66.63;25.37;;;1.70;99.90;;;-143.91;100.00;62816.50;4944104;28;100950;-69
2021/01/05 05:50:16;;;;;;;85.47;26.43;;;2.80;99.90;;;-143.91;100.00;62816.50;4944697;28;100468;-69
2021/01/05 05:52:51;;;;;;;78.53;27.17;;;1.70;99.90;;;-143.91;100.00;62816.50;4945351;28;100162;-69
2021/01/05 05:55:28;;;;;;;65.73;25.07;;;1.90;99.90;;;-143.91;100.00;62816.50;4945134;28;100250;-70
2021/01/05 05:57:58;;;;;;;76.80;24.30;;;1.70;99.90;;;-143.91;100.00;62816.50;4944849;28;101350;-69
2021/01/05 06:03:20;;;;;;;79.83;25.73;;;2.00;99.90;;;-143.91;100.00;62816.50;4945373;28;100048;-71
2021/01/05 06:05:47;;;;;;;67.43;28.37;;;1.90;99.90;;;-143.91;100.00;62816.50;4944706;28;100419;-70
2021/01/05 06:08:17;;;;;;;83.93;33.27;;;1.90;99.90;;;-143.91;100.00;62816.50;4943626;28;101763;-71
2021/01/05 06:10:45;;;;;;;59.10;25.30;;;2.10;99.90;;;-143.91;100.00;62816.50;4943585;28;101101;-70
2021/01/05 06:13:12;;;;;;;64.60;24.83;;;1.50;99.90;;;-143.91;100.00;62816.50;4944711;28;100168;-70
2021/01/05 06:15:40;;;;;;;63.30;24.80;;;1.80;99.90;;;-143.91;100.00;62816.50;4944824;28;100489;-70
2021/01/05 06:18:10;;;;;;;52.13;24.40;;;1.80;99.90;;;-143.91;100.00;62816.50;4944427;28;101018;-69
2021/01/05 06:20:36;;;;;;;50.40;22.53;;;1.70;99.90;;;-143.91;100.00;62816.50;4926067;28;101751;-69
2021/01/05 06:23:03;;;;;;;56.53;24.97;;;1.80;99.90;;;-143.91;100.00;62816.50;4944734;28;100030;-70
2021/01/05 06:25:30;;;;;;;68.03;24.47;;;1.70;99.90;;;-143.91;100.00;62816.50;4945030;28;100431;-70
2021/01/05 06:27:57;;;;;;;66.93;24.87;;;1.80;99.90;;;-143.91;100.00;62816.50;4944307;28;100605;-69
2021/01/05 06:30:25;;;;;;;57.77;24.87;;;1.80;99.90;;;-143.91;100.00;62816.50;4943777;28;101226;-69
2021/01/05 06:32:52;;;;;;;53.40;23.83;;;1.10;99.90;;;-143.91;100.00;62816.50;4943895;28;100280;-70
2021/01/05 06:35:22;;;;;;;50.13;23.53;;;1.70;99.90;;;-143.91;100.00;62816.50;4944137;28;100420;-70
2021/01/05 06:37:50;;;;;;;47.00;24.43;;;1.80;99.90;;;-143.91;100.00;62816.50;4944663;28;101027;-69
2021/01/05 06:40:20;;;;;;;47.53;22.13;;;1.70;99.90;;;-143.91;100.00;62816.50;4943889;28;100382;-69
2021/01/05 06:42:46;;;;;;;45.07;22.20;;;1.80;99.90;;;-143.91;100.00;62816.50;4944287;28;100059;-70
2021/01/05 06:45:18;;;;;;;51.37;23.27;;;1.70;99.90;;;-143.91;100.00;62816.50;4944637;28;100204;-69
2021/01/05 06:47:46;;;;;;;41.97;23.57;;;1.60;99.90;;;-143.91;100.00;62816.50;4944302;28;100703;-69
2021/01/05 06:50:15;;;;;;;46.10;22.30;;;1.60;99.90;;;-143.91;100.00;62816.50;4944677;28;100722;-69
2021/01/05 06:52:42;;;;;;;47.37;22.87;;;1.70;99.90;;;-143.91;100.00;62816.50;4944944;28;100266;-69
2021/01/05 06:55:10;;;;;;;44.10;21.27;;;1.70;99.90;;;-143.91;100.00;62816.50;4943355;28;100719;-69
2021/01/05 06:57:37;;;;;;;42.63;21.43;;;1.70;99.90;;;-143.91;100.00;62816.50;4943324;28;100898;-70
2021/01/05 07:00:08;;;;;;;38.63;21.57;;;1.60;99.90;;;-143.91;100.00;62816.50;4941061;28;100307;-70
2021/01/05 07:02:34;;;;;;;48.13;22.23;;;1.60;99.90;;;-143.91;100.00;62816.50;4941505;28;100138;-69
2021/01/05 07:05:01;;;;;;;43.53;21.63;;;1.70;99.90;;;-143.91;100.00;62816.50;4941785;28;99955;-69
2021/01/05 07:07:29;;;;;;;41.77;20.53;;;1.70;99.90;;;-143.91;100.00;62816.50;4941934;28;100172;-70
2021/01/05 07:09:56;;;;;;;45.53;21.03;;;1.70;99.90;;;-143.91;100.00;62816.50;4940879;28;100620;-70
2021/01/05 07:12:22;;;;;;;42.63;21.33;;;1.60;99.90;;;-143.91;100.00;62816.50;4951689;28;100352;-70
2021/01/05 07:14:49;;;;;;;41.63;23.23;;;1.60;99.90;;;-143.91;100.00;62816.50;4058784;28;10000324;-70
2021/01/05 07:17:16;;;;;;;45.97;21.80;;;1.70;99.90;;;-143.91;100.00;62816.50;4943112;28;100074;-71
2021/01/05 07:19:50;;;;;;;43.67;22.97;;;2.30;99.90;;;-143.91;100.00;62816.50;4946540;28;100079;-69
2021/01/05 07:22:16;;;;;;;40.20;20.80;;;1.70;99.90;;;-143.91;100.00;62816.50;4940805;28;100672;-70
2021/01/05 07:24:44;;;;;;;37.50;19.97;;;1.70;99.90;;;-143.91;100.00;62816.50;4061983;28;10000247;-71
2021/01/05 07:27:11;;;;;;;42.27;21.87;;;1.60;99.90;;;-143.91;100.00;62816.50;4926697;28;104032;-70
2021/01/05 07:29:38;;;;;;;37.80;19.23;;;1.60;99.90;;;-143.91;100.00;62816.50;4943992;28;100358;-69
2021/01/05 07:32:05;;;;;;;40.77;21.40;;;1.50;99.90;;;-143.91;100.00;62816.50;4944031;28;100380;-70
2021/01/05 07:34:37;;;;;;;35.80;20.00;;;1.70;99.90;;;-143.91;100.00;62816.50;4944703;28;100331;-69
2021/01/05 07:37:07;;;;;;;39.43;19.90;;;1.60;99.90;;;-143.91;100.00;62816.50;4943737;28;101735;-68
2021/01/05 07:39:34;;;;;;;43.50;21.63;;;1.50;99.90;;;-143.91;100.00;62816.50;4944468;28;100458;-69
2021/01/05 07:42:17;;;;;;;40.70;20.60;;;1.60;99.90;;;-143.91;100.00;62816.50;4946345;28;100835;-69
2021/01/05 07:44:46;;;;;;;37.87;21.73;;;1.50;99.90;;;-143.91;100.00;62816.50;4926769;28;100256;-71
2021/01/05 07:47:14;;;;;;;44.60;22.53;;;1.70;99.90;;;-143.91;100.00;62816.50;4943387;28;101498;-69
2021/01/05 07:49:41;;;;;;;37.10;19.07;;;1.40;99.90;;;-143.91;100.00;62816.50;4943740;28;101260;-70
2021/01/05 07:52:34;;;;;;;49.40;21.30;;;1.60;99.90;;;-143.91;100.00;62816.50;4943844;28;100381;-70
2021/01/05 07:55:03;;;;;;;40.27;19.97;;;1.60;99.90;;;-143.91;100.00;62816.50;4944251;28;100485;-70
2021/01/05 07:57:31;;;;;;;34.57;19.17;;;1.40;99.90;;;-143.91;100.00;62816.50;4944133;28;100853;-69
2021/01/05 07:59:57;;;;;;;38.87;19.53;;;1.60;99.90;;;-143.91;100.00;62816.50;4934698;28;101307;-70
2021/01/05 08:02:24;;;;;;;41.00;21.53;;;1.00;99.90;;;-143.91;100.00;62816.50;4944153;28;100271;-69
2021/01/05 08:04:51;;;;;;;37.60;21.27;;;1.50;99.90;;;-143.91;100.00;62816.50;4944235;28;100687;-70
2021/01/05 08:07:18;;;;;;;41.70;23.20;;;1.50;99.90;;;-143.91;100.00;62816.50;4943840;28;100217;-69
2021/01/05 08:09:45;;;;;;;43.87;21.57;;;0.90;99.90;;;-143.91;100.00;62816.50;4917861;28;101192;-70
2021/01/05 08:12:14;;;;;;;43.47;21.00;;;1.50;99.90;;;-143.91;100.00;62816.50;4941173;28;100338;-70
2021/01/05 08:14:42;;;;;;;37.80;21.17;;;1.60;99.90;;;-143.91;100.00;62816.50;4957940;28;100211;-68
2021/01/05 08:17:09;;;;;;;41.77;23.00;;;1.80;99.90;;;-143.91;100.00;62816.50;4962786;28;101329;-71
2021/01/05 08:19:36;;;;;;;40.47;21.97;;;0.60;99.90;;;-143.91;100.00;62816.50;4943212;28;101390;-71
2021/01/05 08:22:04;;;;;;;36.97;21.13;;;1.80;99.90;;;-143.91;100.00;62816.50;4942057;28;100224;-72
2021/01/05 08:24:31;;;;;;;40.00;21.07;;;1.70;99.90;;;-143.91;100.00;62816.50;4941784;28;100232;-71
2021/01/05 08:26:57;;;;;;;38.60;20.23;;;1.70;99.90;;;-143.91;100.00;62816.50;4941021;28;103872;-70
2021/01/05 08:29:24;;;;;;;40.13;21.07;;;1.70;99.90;;;-143.91;100.00;62816.50;4943523;28;100340;-69
2021/01/05 08:31:52;;;;;;;49.80;20.97;;;1.80;99.90;;;-143.91;100.00;62816.50;4943091;28;100740;-69
2021/01/05 08:34:19;;;;;;;39.27;20.10;;;1.70;99.90;;;-143.91;100.00;62816.50;4943714;28;100329;-70
2021/01/05 08:36:45;;;;;;;45.37;22.00;;;1.90;99.90;;;-143.91;100.00;62816.50;4942514;28;100279;-70
2021/01/05 08:39:13;;;;;;;43.07;20.37;;;2.00;99.90;;;-143.91;100.00;62816.50;4943292;28;100360;-71
2021/01/05 08:41:45;;;;;;;41.33;20.47;;;1.70;99.90;;;-143.91;100.00;62816.50;4943912;28;100458;-70
2021/01/05 08:44:13;;;;;;;41.70;22.23;;;1.80;99.90;;;-143.91;100.00;62816.50;4943818;28;100226;-71
2021/01/05 08:46:43;;;;;;;39.27;21.57;;;1.70;99.90;;;-143.91;100.00;62816.50;4942931;28;100725;-72
2021/01/05 08:49:10;;;;;;;39.03;20.27;;;1.80;99.90;;;-143.91;100.00;62816.50;4923148;28;101472;-71
2021/01/05 08:51:37;;;;;;;39.77;22.60;;;1.70;99.90;;;-143.91;100.00;62816.50;4923423;28;100315;-70
2021/01/05 08:54:04;;;;;;;38.10;20.30;;;1.70;99.90;;;-143.91;100.00;62816.50;4937602;28;99999;-69
2021/01/05 08:56:31;;;;;;;33.67;18.03;;;1.70;99.90;;;-143.91;100.00;62816.50;4942979;28;100750;-70
2021/01/05 08:58:58;;;;;;;38.73;19.77;;;0.70;99.90;;;-143.91;100.00;62816.50;4942763;28;101229;-69
2021/01/05 09:01:24;;;;;;;37.77;21.43;;;1.60;99.90;;;-143.91;100.00;62816.50;4942870;28;100296;-71
2021/01/05 09:03:52;;;;;;;38.37;21.57;;;1.70;99.90;;;-143.91;100.00;62816.50;4943321;28;100222;-69
2021/01/05 09:06:23;;;;;;;30.63;19.80;;;1.80;99.90;;;-143.91;100.00;62816.50;4944051;28;100551;-71
2021/01/05 09:08:51;;;;;;;31.30;18.97;;;1.70;99.90;;;-143.91;100.00;62816.50;4942950;28;100856;-70
2021/01/05 09:11:21;;;;;;;36.33;21.37;;;1.70;99.90;;;-143.91;100.00;62816.50;4942089;28;100878;-70
2021/01/05 09:13:48;;;;;;;34.53;20.90;;;1.80;99.90;;;-143.91;100.00;62816.50;4942779;28;100548;-69
2021/01/05 09:16:27;;;;;;;36.50;20.60;;;1.80;99.90;;;-143.91;100.00;62816.50;4942529;28;101144;-70
2021/01/05 09:18:54;;;;;;;30.30;18.20;;;2.30;99.90;;;-143.91;100.00;62816.50;4943249;28;101082;-71
2021/01/05 09:21:24;;;;;;;30.90;19.10;;;1.70;99.90;;;-143.91;100.00;62816.50;4942760;28;100119;-70
2021/01/05 09:23:52;;;;;;;28.47;16.53;;;1.70;99.90;;;-143.91;100.00;62816.50;4942521;28;100171;-71
2021/01/05 09:26:25;;;;;;;32.33;17.97;;;1.70;99.90;;;-143.91;100.00;62816.50;4942115;28;100590;-68
2021/01/05 09:28:55;;;;;;;31.87;18.83;;;1.90;99.90;;;-143.91;100.00;62816.50;4942506;28;101124;-69
2021/01/05 09:31:22;;;;;;;36.23;21.10;;;2.90;99.90;;;-143.91;100.00;62816.50;4942845;28;100404;-70
2021/01/05 09:33:51;;;;;;;34.73;20.20;;;1.80;99.90;;;-143.91;100.00;62816.50;4942803;28;100364;-70
2021/01/05 09:36:18;;;;;;;30.00;18.53;;;1.70;99.90;;;-143.91;100.00;62816.50;4942406;28;102230;-71
2021/01/05 09:38:46;;;;;;;29.80;17.47;;;1.70;99.90;;;-143.91;100.00;62816.50;4941968;28;100110;-69
2021/01/05 09:41:22;;;;;;;27.63;18.13;;;1.70;99.90;;;-143.91;100.00;62816.50;4942823;28;100450;-70
2021/01/05 09:43:49;;;;;;;28.47;17.93;;;1.80;99.90;;;-143.91;100.00;62816.50;4942668;28;100091;-69
2021/01/05 09:46:20;;;;;;;29.27;20.20;;;1.70;99.90;;;-143.91;100.00;62816.50;4944321;28;100591;-70
2021/01/05 09:48:50;;;;;;;37.00;21.20;;;2.00;99.90;;;-143.91;100.00;62816.50;4943555;28;100209;-68
2021/01/05 09:51:23;;;;;;;31.57;19.30;;;1.90;99.90;;;-143.91;100.00;62816.50;4944192;28;100115;-68
2021/01/05 09:53:50;;;;;;;35.77;20.70;;;2.00;99.90;;;-143.91;100.00;62816.50;4944939;28;100171;-68
2021/01/05 09:56:18;;;;;;;32.97;21.07;;;2.00;99.90;;;-143.91;100.00;62816.50;4944082;28;100847;-68
2021/01/05 09:58:46;;;;;;;33.43;19.27;;;1.90;99.90;;;-143.91;100.00;62816.50;4943710;28;99988;-69
2021/01/05 10:01:13;;;;;;;32.77;21.07;;;2.10;99.90;;;-143.91;100.00;62816.50;4942368;28;100112;-68
2021/01/05 10:03:52;;;;;;;32.30;21.03;;;2.00;99.90;;;-143.91;100.00;62816.50;4941983;28;100189;-69
2021/01/05 10:06:19;;;;;;;28.50;19.10;;;2.10;99.90;;;-143.91;100.00;62816.50;4942286;28;100192;-68
2021/01/05 10:08:45;;;;;;;30.37;19.20;;;2.10;99.90;;;-143.91;100.00;62816.50;4942573;28;100402;-69
2021/01/05 10:11:13;;;;;;;32.57;20.20;;;2.30;99.90;;;-143.91;100.00;62816.50;4941200;28;100593;-69
2021/01/05 10:13:40;;;;;;;28.43;19.00;;;2.30;99.90;;;-143.91;100.00;62816.50;4942101;28;100889;-67
2021/01/05 10:16:07;;;;;;;26.70;17.27;;;2.90;99.90;;;-143.91;100.00;62816.50;4941496;28;101028;-68
2021/01/05 10:18:34;;;;;;;26.87;18.07;;;2.70;99.90;;;-143.91;100.00;62816.50;4941838;28;100782;-68
2021/01/05 10:21:01;;;;;;;25.10;18.13;;;2.20;99.90;;;-143.91;100.00;62816.50;4941788;28;100022;-69
2021/01/05 10:23:27;;;;;;;28.30;18.33;;;3.30;99.90;;;-143.91;100.00;62816.50;4942853;28;100211;-69